Annapolis, California
Current Conditions -  °F | °C
As of 12:56 PM on Thursday 18 Dec 2014 (Local Time) from KUKI Reporting Station
Overcast Overcast  
Wind Chill: 55°   Ceiling: 1400
Heat Index: 55°   Visibility: 10mi
Dew Point: 49°   Wind: 7mph
Humidity: 80%   Direction: NA
Pressure: 30.12"   Gusts: NA
Location:  38.71°N, 123.35°W
Report Text: KUKI 182056Z AUTO VRB06KT 10SM BKN014 BKN023 OVC041 13/09 A3012 RMK AO2 SLP198 T01280094 55015
Loading
Personal Weather Stations






























Interactive Weather Map New forecast layout! Learn more

10-Day Weather Forecast

Advertisements
Track Severe Weather on mobile